createdAt,value
2023-05-02T00:00:09.255Z,60.20
2023-05-02T00:02:37.746Z,59.90
2023-05-02T00:05:07.418Z,60.20
2023-05-02T00:07:37.021Z,60.30
2023-05-02T00:10:08.214Z,60.60
2023-05-02T00:12:36.786Z,60.00
2023-05-02T00:15:06.072Z,59.40
2023-05-02T00:17:34.640Z,58.70
2023-05-02T00:20:04.459Z,58.90
2023-05-02T00:22:33.096Z,59.00
2023-05-02T00:25:01.766Z,58.30
2023-05-02T00:27:33.647Z,58.40
2023-05-02T00:30:02.453Z,58.10
2023-05-02T00:32:31.121Z,58.80
2023-05-02T00:34:59.584Z,57.70
2023-05-02T00:37:29.233Z,57.50
2023-05-02T00:39:58.122Z,57.30
2023-05-02T00:42:27.130Z,57.40
2023-05-02T00:44:57.463Z,57.70
2023-05-02T00:47:26.100Z,58.10
2023-05-02T00:49:54.636Z,58.40
2023-05-02T00:52:23.726Z,58.50
2023-05-02T00:54:52.886Z,59.30
2023-05-02T00:57:21.631Z,59.50
2023-05-02T00:59:50.617Z,60.70
2023-05-02T01:02:39.693Z,60.40
2023-05-02T01:05:16.795Z,60.80
2023-05-02T01:07:58.606Z,61.20
2023-05-02T01:10:38.043Z,61.80
2023-05-02T01:13:10.475Z,62.20
2023-05-02T01:15:40.338Z,62.20
2023-05-02T01:18:11.317Z,62.50
2023-05-02T01:20:43.392Z,62.70
2023-05-02T01:23:23.652Z,63.00
2023-05-02T01:26:04.677Z,63.20
2023-05-02T01:28:45.821Z,63.20
2023-05-02T01:31:16.890Z,63.40
2023-05-02T01:33:47.199Z,63.40
2023-05-02T01:36:17.251Z,63.70
2023-05-02T01:38:46.839Z,63.10
2023-05-02T01:41:16.127Z,62.80
2023-05-02T01:43:46.863Z,63.00
2023-05-02T01:46:16.247Z,62.90
2023-05-02T01:48:49.769Z,62.90
2023-05-02T01:51:20.452Z,63.00
2023-05-02T01:53:50.757Z,62.50
2023-05-02T01:56:20.446Z,62.70
2023-05-02T01:58:51.592Z,62.70
2023-05-02T02:01:21.263Z,62.80
2023-05-02T02:03:50.092Z,62.90
2023-05-02T02:06:20.433Z,62.90
2023-05-02T02:08:49.037Z,63.20
2023-05-02T02:11:22.032Z,63.20
2023-05-02T02:14:00.326Z,63.20
2023-05-02T02:16:32.752Z,63.00
2023-05-02T02:19:08.376Z,63.10
2023-05-02T02:21:38.533Z,62.90
2023-05-02T02:24:08.495Z,62.90
2023-05-02T02:26:37.738Z,63.00
2023-05-02T02:29:07.708Z,63.10
2023-05-02T02:31:39.130Z,62.90
2023-05-02T02:34:08.334Z,62.80
2023-05-02T02:36:43.495Z,61.80
2023-05-02T02:39:22.842Z,61.70
2023-05-02T02:42:03.941Z,61.40
2023-05-02T02:44:45.491Z,61.20
2023-05-02T02:47:28.782Z,61.50
2023-05-02T02:50:12.522Z,61.20
2023-05-02T02:52:54.092Z,61.10
2023-05-02T02:55:35.524Z,61.20
2023-05-02T02:58:18.456Z,61.20
2023-05-02T03:00:50.960Z,61.70
2023-05-02T03:03:21.690Z,61.20
2023-05-02T03:05:51.230Z,61.10
2023-05-02T03:08:20.255Z,61.30
2023-05-02T03:10:49.766Z,61.40
2023-05-02T03:13:18.351Z,61.80
2023-05-02T03:16:22.346Z,63.20
2023-05-02T03:18:51.306Z,63.40
2023-05-02T03:21:19.750Z,63.60
2023-05-02T03:23:48.618Z,64.20
2023-05-02T03:26:17.905Z,64.30
2023-05-02T03:28:47.318Z,64.40
2023-05-02T03:31:17.441Z,64.40
2023-05-02T03:33:46.333Z,64.50
2023-05-02T03:36:15.695Z,65.10
2023-05-02T03:38:44.674Z,65.60
2023-05-02T03:41:13.220Z,64.90
2023-05-02T03:43:41.813Z,64.90
2023-05-02T03:46:11.906Z,65.10
2023-05-02T03:48:42.117Z,64.80
2023-05-02T03:51:14.323Z,65.30
2023-05-02T03:53:43.511Z,64.60
2023-05-02T03:56:12.423Z,64.80
2023-05-02T03:58:41.590Z,64.80
2023-05-02T04:01:16.114Z,65.00
2023-05-02T04:03:48.677Z,65.10
2023-05-02T04:06:17.963Z,65.20
2023-05-02T04:08:47.021Z,65.00
2023-05-02T04:11:15.832Z,64.90
2023-05-02T04:13:44.594Z,64.10
2023-05-02T04:16:13.752Z,63.80
2023-05-02T04:18:42.251Z,63.00
2023-05-02T04:21:13.573Z,62.80
2023-05-02T04:23:42.023Z,62.20
2023-05-02T04:26:11.129Z,62.40
2023-05-02T04:28:39.664Z,61.70
2023-05-02T04:31:08.627Z,61.00
2023-05-02T04:33:40.186Z,60.80
2023-05-02T04:36:12.493Z,60.90
2023-05-02T04:38:41.394Z,60.70
2023-05-02T04:41:09.990Z,60.60
2023-05-02T04:43:38.707Z,60.40
2023-05-02T04:46:10.230Z,61.20
2023-05-02T04:48:42.023Z,60.60
2023-05-02T04:51:12.552Z,60.40
2023-05-02T04:53:41.882Z,60.60
2023-05-02T04:56:11.387Z,60.60
2023-05-02T04:58:40.149Z,60.70
2023-05-02T05:01:08.891Z,60.70
2023-05-02T05:03:38.042Z,60.70
2023-05-02T05:06:07.197Z,60.60
2023-05-02T05:08:37.505Z,61.00
2023-05-02T05:11:06.737Z,61.20
2023-05-02T05:13:35.276Z,60.70
2023-05-02T05:16:03.937Z,60.70
2023-05-02T05:18:40.940Z,60.80
2023-05-02T05:21:10.066Z,60.80
2023-05-02T05:23:45.768Z,60.30
2023-05-02T05:26:16.124Z,60.40
2023-05-02T05:28:45.471Z,59.50
2023-05-02T05:31:16.991Z,60.00
2023-05-02T05:33:48.101Z,59.30
2023-05-02T05:36:17.324Z,58.50
2023-05-02T05:38:47.346Z,58.20
2023-05-02T05:41:21.001Z,57.90
2023-05-02T05:43:49.389Z,57.70
2023-05-02T05:46:18.308Z,56.80
2023-05-02T05:48:47.155Z,56.10
2023-05-02T05:51:15.977Z,56.90
2023-05-02T05:53:46.181Z,57.30
2023-05-02T05:56:16.015Z,56.90
2023-05-02T05:58:44.360Z,56.80
2023-05-02T06:01:13.765Z,56.80
2023-05-02T06:03:42.443Z,56.40
2023-05-02T06:06:11.256Z,57.20
2023-05-02T06:08:39.849Z,56.20
2023-05-02T06:11:12.030Z,56.40
2023-05-02T06:13:40.631Z,56.50
2023-05-02T06:16:09.338Z,55.90
2023-05-02T06:18:38.158Z,56.50
2023-05-02T06:21:07.169Z,56.60
2023-05-02T06:23:36.795Z,56.80
2023-05-02T06:26:07.020Z,55.40
2023-05-02T06:28:37.290Z,55.50
2023-05-02T06:31:07.335Z,55.50
2023-05-02T06:33:36.616Z,55.90
2023-05-02T06:36:05.768Z,56.90
2023-05-02T06:38:34.360Z,56.60
2023-05-02T06:41:02.921Z,56.30
2023-05-02T06:43:31.548Z,55.50
2023-05-02T06:46:02.455Z,55.80
2023-05-02T06:48:30.893Z,55.20
2023-05-02T06:50:59.700Z,55.40
2023-05-02T06:53:28.157Z,54.60
2023-05-02T06:55:57.046Z,54.90
2023-05-02T06:58:25.528Z,54.60
2023-05-02T07:00:56.077Z,54.70
2023-05-02T07:03:26.018Z,53.80
2023-05-02T07:05:54.695Z,52.40
2023-05-02T07:08:24.301Z,51.80
2023-05-02T07:10:53.201Z,52.70
2023-05-02T07:13:22.088Z,51.30
2023-05-02T07:15:51.131Z,50.40
2023-05-02T07:18:19.756Z,51.00
2023-05-02T07:20:50.381Z,51.10
2023-05-02T07:23:19.081Z,50.50
2023-05-02T07:25:48.963Z,51.20
2023-05-02T07:28:17.585Z,51.40
2023-05-02T07:30:46.528Z,50.70
2023-05-02T07:33:16.732Z,51.70
2023-05-02T07:35:45.279Z,51.20
2023-05-02T07:38:15.411Z,51.30
2023-05-02T07:40:44.871Z,52.90
2023-05-02T07:43:13.453Z,50.00
2023-05-02T07:45:42.596Z,48.90
2023-05-02T07:48:11.179Z,48.10
2023-05-02T07:50:39.688Z,48.20
2023-05-02T07:53:08.379Z,48.20
2023-05-02T07:55:38.542Z,46.70
2023-05-02T07:58:07.350Z,47.10
2023-05-02T08:00:35.900Z,46.80
2023-05-02T08:03:04.687Z,47.60
2023-05-02T08:05:34.090Z,47.70
2023-05-02T08:08:02.831Z,48.50
2023-05-02T08:10:31.661Z,48.40
2023-05-02T08:13:01.852Z,48.20
2023-05-02T08:15:30.360Z,48.90
2023-05-02T08:17:59.958Z,49.20
2023-05-02T08:20:28.977Z,50.50
2023-05-02T08:22:59.334Z,49.40
2023-05-02T08:25:30.029Z,49.60
2023-05-02T08:27:58.477Z,50.00
2023-05-02T08:30:28.398Z,51.00
2023-05-02T08:32:56.953Z,50.90
2023-05-02T08:35:25.520Z,49.60
2023-05-02T08:37:54.200Z,48.70
2023-05-02T08:40:34.052Z,47.70
2023-05-02T08:43:09.365Z,46.00
2023-05-02T08:45:41.929Z,45.70
2023-05-02T08:48:12.415Z,45.80
2023-05-02T08:50:41.882Z,46.10
2023-05-02T08:53:11.980Z,46.00
2023-05-02T08:55:42.312Z,45.60
2023-05-02T08:58:13.926Z,45.80
2023-05-02T09:00:51.997Z,46.10
2023-05-02T09:03:30.732Z,46.20
2023-05-02T09:06:07.514Z,46.90
2023-05-02T09:08:36.705Z,46.10
2023-05-02T09:11:06.828Z,47.00
2023-05-02T09:13:37.652Z,46.80
2023-05-02T09:16:11.645Z,46.60
2023-05-02T09:18:41.946Z,47.70
2023-05-02T09:21:12.883Z,46.40
2023-05-02T09:23:42.897Z,47.70
2023-05-02T09:26:15.936Z,47.90
2023-05-02T09:28:45.634Z,46.40
2023-05-02T09:31:26.787Z,46.30
2023-05-02T09:34:10.258Z,45.20
2023-05-02T09:36:41.898Z,46.60
2023-05-02T09:39:13.594Z,47.80
2023-05-02T09:41:42.928Z,47.90
2023-05-02T09:44:12.761Z,47.90
2023-05-02T09:46:43.148Z,48.10
2023-05-02T09:49:12.053Z,49.00
2023-05-02T09:51:44.229Z,49.30
2023-05-02T09:54:13.182Z,49.50
2023-05-02T09:56:56.918Z,50.30
2023-05-02T09:59:30.769Z,51.40
2023-05-02T10:02:03.029Z,51.20
2023-05-02T10:04:33.283Z,50.90
2023-05-02T10:07:03.550Z,51.40
2023-05-02T10:09:33.452Z,50.10
2023-05-02T10:12:05.245Z,51.00
2023-05-02T10:14:41.292Z,50.20
2023-05-02T10:17:17.539Z,48.40
2023-05-02T10:19:53.638Z,47.70
2023-05-02T10:22:23.189Z,47.10
2023-05-02T10:24:53.668Z,48.20
2023-05-02T10:27:22.998Z,46.70
2023-05-02T10:29:53.021Z,47.70
2023-05-02T10:32:25.125Z,46.40
2023-05-02T10:34:55.439Z,47.60
2023-05-02T10:37:25.203Z,47.30
2023-05-02T10:39:54.066Z,47.60
2023-05-02T10:42:23.683Z,46.10
2023-05-02T10:44:52.233Z,45.80
2023-05-02T10:47:23.442Z,47.30
2023-05-02T10:49:53.764Z,46.20
2023-05-02T10:52:30.588Z,46.90
2023-05-02T10:55:19.760Z,46.80
2023-05-02T10:58:22.711Z,46.20
2023-05-02T11:00:51.731Z,45.80
2023-05-02T11:03:56.686Z,45.00
2023-05-02T11:06:25.315Z,46.60
2023-05-02T11:08:54.147Z,45.80
2023-05-02T11:11:43.636Z,46.20
2023-05-02T11:14:14.469Z,46.50
2023-05-02T11:17:10.940Z,46.30
2023-05-02T11:20:28.069Z,46.50
2023-05-02T11:23:00.141Z,47.60
2023-05-02T11:25:34.350Z,46.70
2023-05-02T11:28:04.119Z,48.00
2023-05-02T11:30:48.608Z,48.50
2023-05-02T11:33:20.284Z,47.30
2023-05-02T11:35:50.060Z,45.80
2023-05-02T11:41:16.237Z,47.90
2023-05-02T11:43:44.972Z,48.50
2023-05-02T11:46:13.994Z,48.80
2023-05-02T11:48:43.185Z,49.40
2023-05-02T11:51:11.719Z,49.50
2023-05-02T11:53:43.252Z,49.40
2023-05-02T11:56:12.074Z,47.80
2023-05-02T11:58:41.823Z,46.70
2023-05-02T12:01:14.992Z,47.20
2023-05-02T12:03:45.141Z,46.80
2023-05-02T12:06:15.858Z,46.00
2023-05-02T12:08:46.635Z,45.00
2023-05-02T12:11:17.184Z,45.30
2023-05-02T12:13:48.309Z,45.30
2023-05-02T12:16:17.453Z,44.80
2023-05-02T12:18:47.914Z,46.00
2023-05-02T12:21:17.236Z,45.20
2023-05-02T12:23:47.625Z,45.40
2023-05-02T12:26:20.055Z,44.90
2023-05-02T12:28:52.691Z,45.00
2023-05-02T12:31:21.317Z,45.20
2023-05-02T12:33:51.091Z,45.00
2023-05-02T12:36:19.544Z,44.60
2023-05-02T12:38:54.913Z,44.90
2023-05-02T12:41:45.851Z,45.60
2023-05-02T12:44:14.716Z,47.50
2023-05-02T12:47:00.954Z,44.70
2023-05-02T12:49:30.047Z,44.10
2023-05-02T12:51:59.247Z,44.40
2023-05-02T12:54:29.234Z,41.70
2023-05-02T12:56:58.324Z,43.00
2023-05-02T12:59:28.748Z,42.50
2023-05-02T13:01:57.560Z,44.50
2023-05-02T13:04:36.243Z,46.50
2023-05-02T13:07:05.461Z,46.00
2023-05-02T13:09:35.850Z,46.90
2023-05-02T13:12:04.660Z,47.80
2023-05-02T13:14:33.694Z,48.60
2023-05-02T13:17:02.508Z,49.40
2023-05-02T13:19:31.642Z,50.50
2023-05-02T13:22:00.206Z,50.50
2023-05-02T13:24:28.984Z,50.30
2023-05-02T13:26:59.108Z,49.90
2023-05-02T13:29:27.519Z,49.80
2023-05-02T13:31:56.109Z,49.90
2023-05-02T13:34:24.957Z,49.10
2023-05-02T13:36:53.445Z,49.50
2023-05-02T13:39:22.053Z,48.60
2023-05-02T13:41:50.551Z,48.00
2023-05-02T13:44:21.115Z,47.60
2023-05-02T13:46:50.188Z,48.60
2023-05-02T13:49:19.103Z,49.50
2023-05-02T13:51:48.741Z,49.60
2023-05-02T13:54:17.249Z,49.40
2023-05-02T13:56:45.721Z,49.10
2023-05-02T13:59:14.829Z,48.40
2023-05-02T14:01:45.278Z,49.40
2023-05-02T14:04:13.847Z,50.30
2023-05-02T14:06:42.742Z,50.00
2023-05-02T14:09:11.361Z,51.30
2023-05-02T14:11:39.807Z,50.30
2023-05-02T14:14:09.057Z,50.40
2023-05-02T14:16:37.595Z,49.80
2023-05-02T14:19:07.792Z,48.50
2023-05-02T14:21:37.371Z,47.10
2023-05-02T14:24:07.291Z,48.10
2023-05-02T14:26:35.707Z,48.10
2023-05-02T14:29:04.632Z,48.70
2023-05-02T14:31:33.251Z,47.10
2023-05-02T14:34:01.994Z,47.20
2023-05-02T14:36:32.558Z,47.20
2023-05-02T14:39:00.979Z,45.90
2023-05-02T14:41:29.711Z,44.20
2023-05-02T14:46:51.432Z,45.40
2023-05-02T14:49:20.318Z,46.50
2023-05-02T14:51:50.263Z,47.70
2023-05-02T14:54:20.183Z,48.10
2023-05-02T14:56:48.905Z,47.90
2023-05-02T14:59:17.558Z,47.90
2023-05-02T15:01:46.530Z,48.70
2023-05-02T15:04:15.552Z,48.10
2023-05-02T15:06:44.043Z,46.00
2023-05-02T15:09:14.018Z,44.10
2023-05-02T15:11:42.588Z,45.40
2023-05-02T15:14:11.407Z,43.80
2023-05-02T15:16:40.238Z,44.60
2023-05-02T15:19:09.031Z,44.10
2023-05-02T15:21:37.477Z,43.70
2023-05-02T15:24:06.733Z,43.60
2023-05-02T15:26:36.882Z,43.50
2023-05-02T15:29:05.581Z,42.20
2023-05-02T15:31:34.589Z,43.60
2023-05-02T15:34:03.296Z,45.10
2023-05-02T15:36:33.077Z,45.80
2023-05-02T15:39:01.358Z,47.30
2023-05-02T15:41:29.978Z,45.20
2023-05-02T15:44:00.745Z,45.50
2023-05-02T15:46:29.520Z,45.50
2023-05-02T15:48:57.964Z,46.50
2023-05-02T15:51:26.821Z,47.20
2023-05-02T15:53:56.015Z,47.10
2023-05-02T15:56:24.831Z,46.90
2023-05-02T15:58:53.221Z,47.40
2023-05-02T16:01:24.159Z,48.20
2023-05-02T16:03:52.757Z,49.30
2023-05-02T16:06:21.248Z,50.30
2023-05-02T16:08:49.726Z,50.90
2023-05-02T16:11:18.288Z,52.80
2023-05-02T16:13:47.001Z,54.00
2023-05-02T16:16:15.834Z,55.10
2023-05-02T16:18:46.123Z,56.30
2023-05-02T16:21:14.824Z,55.90
2023-05-02T16:23:48.479Z,57.20
2023-05-02T16:26:16.826Z,59.30
2023-05-02T16:28:45.222Z,58.90
2023-05-02T16:31:14.945Z,58.90
2023-05-02T16:33:44.113Z,57.90
2023-05-02T16:36:14.711Z,57.80
2023-05-02T16:38:43.132Z,58.10
2023-05-02T16:41:12.005Z,58.20
2023-05-02T16:43:40.949Z,58.40
2023-05-02T16:46:09.380Z,59.00
2023-05-02T16:48:37.834Z,59.10
2023-05-02T16:51:07.202Z,59.90
2023-05-02T16:53:37.001Z,60.20
2023-05-02T16:56:06.032Z,60.60
2023-05-02T16:58:34.458Z,60.90
2023-05-02T17:01:07.693Z,61.80
2023-05-02T17:03:37.300Z,62.10
2023-05-02T17:06:05.947Z,61.30
2023-05-02T17:08:35.904Z,61.30
2023-05-02T17:11:05.283Z,61.50
2023-05-02T17:13:34.157Z,62.00
2023-05-02T17:16:03.375Z,62.00
2023-05-02T17:18:34.428Z,62.00
2023-05-02T17:21:04.011Z,62.10
2023-05-02T17:23:32.712Z,62.10
2023-05-02T17:26:03.070Z,62.30
2023-05-02T17:28:31.625Z,62.70
2023-05-02T17:31:00.807Z,63.60
2023-05-02T17:33:29.340Z,63.50
2023-05-02T17:35:57.782Z,62.50
2023-05-02T17:38:27.230Z,62.80
2023-05-02T17:40:56.015Z,62.80
2023-05-02T17:43:25.763Z,62.70
2023-05-02T17:45:54.180Z,62.30
2023-05-02T17:48:22.919Z,62.00
2023-05-02T17:50:51.377Z,61.60
2023-05-02T17:53:20.035Z,61.50
2023-05-02T17:55:49.145Z,61.20
2023-05-02T17:58:17.826Z,61.10
2023-05-02T18:00:47.894Z,61.40
2023-05-02T18:03:16.985Z,61.30
2023-05-02T18:05:47.546Z,61.70
2023-05-02T18:08:16.640Z,61.60
2023-05-02T18:10:45.196Z,62.00
2023-05-02T18:13:14.012Z,61.90
2023-05-02T18:15:42.825Z,61.80
2023-05-02T18:18:12.946Z,61.70
2023-05-02T18:20:41.722Z,62.00
2023-05-02T18:23:10.165Z,62.20
2023-05-02T18:25:38.581Z,62.00
2023-05-02T18:28:07.381Z,62.50
2023-05-02T18:30:37.855Z,62.40
2023-05-02T18:33:07.534Z,62.10
2023-05-02T18:35:37.718Z,62.10
2023-05-02T18:38:07.771Z,63.00
2023-05-02T18:40:36.509Z,62.30
2023-05-02T18:43:05.269Z,63.00
2023-05-02T18:45:35.024Z,62.50
2023-05-02T18:48:04.271Z,62.80
2023-05-02T18:50:32.838Z,63.00
2023-05-02T18:53:02.890Z,63.00
2023-05-02T18:55:33.797Z,63.10
2023-05-02T18:58:02.521Z,62.70
2023-05-02T19:00:31.830Z,62.40
2023-05-02T19:03:00.481Z,62.10
2023-05-02T19:05:29.160Z,62.30
2023-05-02T19:07:57.764Z,62.30
2023-05-02T19:10:27.919Z,62.60
2023-05-02T19:12:56.535Z,62.80
2023-05-02T19:15:26.674Z,61.90
2023-05-02T19:17:55.176Z,61.70
2023-05-02T19:20:24.265Z,61.50
2023-05-02T19:23:02.939Z,61.50
2023-05-02T19:25:43.422Z,61.50
2023-05-02T19:28:12.127Z,61.60
2023-05-02T19:30:42.633Z,61.40
2023-05-02T19:33:11.696Z,61.10
2023-05-02T19:35:40.631Z,61.00
2023-05-02T19:38:09.381Z,61.10
2023-05-02T19:40:37.855Z,61.50
2023-05-02T19:43:08.048Z,61.30
2023-05-02T19:45:36.507Z,61.40
2023-05-02T19:48:05.273Z,61.40
2023-05-02T19:50:34.795Z,61.40
2023-05-02T19:53:04.983Z,61.50
2023-05-02T19:55:33.704Z,61.30
2023-05-02T19:58:04.228Z,62.00
2023-05-02T20:00:34.211Z,61.30
2023-05-02T20:03:03.175Z,61.70
2023-05-02T20:05:32.010Z,60.60
2023-05-02T20:08:00.523Z,60.40
2023-05-02T20:10:29.308Z,60.60
2023-05-02T20:12:57.767Z,60.40
2023-05-02T20:15:26.715Z,60.00
2023-05-02T20:17:57.036Z,60.40
2023-05-02T20:20:25.933Z,60.50
2023-05-02T20:22:55.200Z,60.50
2023-05-02T20:25:23.938Z,60.50
2023-05-02T20:27:53.537Z,60.70
2023-05-02T20:30:22.327Z,60.90
2023-05-02T20:32:51.178Z,61.10
2023-05-02T20:35:21.516Z,61.10
2023-05-02T20:37:50.582Z,62.10
2023-05-02T20:40:19.501Z,62.10
2023-05-02T20:42:48.646Z,61.50
2023-05-02T20:45:18.851Z,60.50
2023-05-02T20:47:47.405Z,60.60
2023-05-02T20:50:17.127Z,60.70
2023-05-02T20:52:46.923Z,60.70
2023-05-02T20:55:15.958Z,60.80
2023-05-02T20:57:45.586Z,60.90
2023-05-02T21:00:15.583Z,60.80
2023-05-02T21:02:44.393Z,60.50
2023-05-02T21:05:13.195Z,60.40
2023-05-02T21:07:41.851Z,60.40
2023-05-02T21:10:12.181Z,59.70
2023-05-02T21:12:40.902Z,58.90
2023-05-02T21:15:10.287Z,58.00
2023-05-02T21:17:40.857Z,58.20
2023-05-02T21:20:11.094Z,58.50
2023-05-02T21:22:39.510Z,58.10
2023-05-02T21:25:08.743Z,59.00
2023-05-02T21:27:38.712Z,58.50
2023-05-02T21:30:08.657Z,58.90
2023-05-02T21:32:37.036Z,59.00
2023-05-02T21:35:06.300Z,59.00
2023-05-02T21:37:35.073Z,59.00
2023-05-02T21:40:04.033Z,59.00
2023-05-02T21:42:33.294Z,59.00
2023-05-02T21:45:03.928Z,59.00
2023-05-02T21:47:33.824Z,59.00
2023-05-02T21:50:02.456Z,59.00
2023-05-02T21:52:31.731Z,58.70
2023-05-02T21:55:01.187Z,58.40
2023-05-02T21:57:30.737Z,57.90
2023-05-02T21:59:59.488Z,57.50
2023-05-02T22:02:29.877Z,56.80
2023-05-02T22:04:58.775Z,56.20
2023-05-02T22:07:27.773Z,56.40
2023-05-02T22:09:56.207Z,55.70
2023-05-02T22:12:27.885Z,56.00
2023-05-02T22:14:56.438Z,56.20
2023-05-02T22:17:25.307Z,56.20
2023-05-02T22:19:55.514Z,56.30
2023-05-02T22:22:24.006Z,56.30
2023-05-02T22:24:52.556Z,56.20
2023-05-02T22:27:21.015Z,56.20
2023-05-02T22:29:49.872Z,56.10
2023-05-02T22:32:18.857Z,56.30
2023-05-02T22:34:47.364Z,56.20
2023-05-02T22:37:17.276Z,56.20
2023-05-02T22:39:46.060Z,56.40
2023-05-02T22:42:14.678Z,56.00
2023-05-02T22:44:53.684Z,56.20
2023-05-02T22:47:23.124Z,56.80
2023-05-02T22:49:52.348Z,55.90
2023-05-02T22:52:22.495Z,55.90
2023-05-02T22:54:50.974Z,55.90
2023-05-02T22:57:20.092Z,55.50
2023-05-02T22:59:48.552Z,56.10
2023-05-02T23:02:17.019Z,55.70
2023-05-02T23:04:45.471Z,55.80
2023-05-02T23:07:13.963Z,55.80
2023-05-02T23:09:43.720Z,56.10
2023-05-02T23:12:12.371Z,56.30
2023-05-02T23:14:41.713Z,56.40
2023-05-02T23:17:10.117Z,56.30
2023-05-02T23:19:38.651Z,56.20
2023-05-02T23:22:07.474Z,56.30
2023-05-02T23:24:35.937Z,56.40
2023-05-02T23:27:06.362Z,56.60
2023-05-02T23:29:34.917Z,56.40
2023-05-02T23:32:08.024Z,56.30
2023-05-02T23:34:37.901Z,56.50
2023-05-02T23:37:13.145Z,57.40
2023-05-02T23:39:41.769Z,57.30
2023-05-02T23:42:11.749Z,57.80
2023-05-02T23:44:40.365Z,58.10
2023-05-02T23:47:12.227Z,58.60
2023-05-02T23:49:40.844Z,58.60
2023-05-02T23:52:09.492Z,59.40
2023-05-02T23:54:37.954Z,59.80
2023-05-02T23:57:06.472Z,61.00
2023-05-02T23:59:36.336Z,60.70
